createdAt,value
2022-08-03T00:03:44.734Z,5.15
2022-08-03T00:10:30.389Z,4.68
2022-08-03T00:17:18.456Z,4.47
2022-08-03T00:24:04.019Z,4.60
2022-08-03T00:30:49.585Z,4.72
2022-08-03T00:37:41.527Z,4.80
2022-08-03T00:44:27.400Z,4.90
2022-08-03T00:51:13.194Z,5.38
2022-08-03T00:58:05.141Z,4.50
2022-08-03T01:04:50.920Z,5.47
2022-08-03T01:12:00.968Z,4.97
2022-08-03T01:18:58.577Z,5.65
2022-08-03T01:26:03.068Z,5.05
2022-08-03T01:33:01.837Z,5.10
2022-08-03T01:39:48.883Z,4.93
2022-08-03T01:46:35.165Z,5.07
2022-08-03T01:53:24.968Z,5.00
2022-08-03T02:00:12.609Z,5.10
2022-08-03T02:07:02.584Z,4.70
2022-08-03T02:13:54.786Z,5.22
2022-08-03T02:20:44.339Z,5.78
2022-08-03T02:27:33.421Z,5.07
2022-08-03T02:34:25.560Z,5.15
2022-08-03T02:41:16.585Z,5.00
2022-08-03T03:01:54.333Z,6.45
2022-08-03T03:08:40.961Z,5.60
2022-08-03T03:15:27.688Z,5.53
2022-08-03T03:22:17.132Z,5.78
2022-08-03T03:29:03.684Z,5.75
2022-08-03T03:35:50.249Z,10.23
2022-08-03T03:42:38.627Z,7.50
2022-08-03T03:49:24.891Z,6.45
2022-08-03T03:56:10.594Z,5.75
2022-08-03T04:10:08.862Z,5.80
2022-08-03T04:17:04.440Z,6.25
2022-08-03T04:23:56.568Z,5.43
2022-08-03T04:30:47.845Z,5.18
2022-08-03T04:37:43.222Z,5.72
2022-08-03T04:44:32.838Z,5.60
2022-08-03T04:51:18.884Z,5.53
2022-08-03T04:58:06.589Z,6.65
2022-08-03T05:04:55.229Z,6.20
2022-08-03T05:11:41.603Z,6.10
2022-08-03T05:18:27.232Z,6.60
2022-08-03T05:32:08.152Z,7.13
2022-08-03T05:38:54.016Z,6.68
2022-08-03T05:45:46.017Z,6.93
2022-08-03T05:52:31.591Z,6.18
2022-08-03T05:59:37.625Z,6.25
2022-08-03T06:06:27.329Z,6.15
2022-08-03T06:13:16.100Z,5.72
2022-08-03T06:20:01.738Z,5.90
2022-08-03T06:26:49.844Z,6.05
2022-08-03T06:34:30.034Z,6.50
2022-08-03T06:40:41.881Z,4.93
2022-08-03T06:47:30.214Z,5.20
2022-08-03T06:54:16.455Z,4.90
2022-08-03T07:01:02.150Z,4.80
2022-08-03T07:07:50.287Z,5.57
2022-08-03T07:14:36.282Z,4.78
2022-08-03T07:21:21.841Z,4.90
2022-08-03T07:28:10.089Z,5.22
2022-08-03T07:35:00.508Z,4.95
2022-08-03T07:41:46.278Z,4.57
2022-08-03T07:48:34.531Z,4.82
2022-08-03T07:55:21.992Z,4.15
2022-08-03T08:02:07.566Z,4.45
2022-08-03T08:08:59.570Z,4.35
2022-08-03T08:15:45.433Z,4.93
2022-08-03T08:22:32.751Z,4.70
2022-08-03T08:29:23.228Z,4.55
2022-08-03T08:36:14.822Z,4.50
2022-08-03T08:43:00.838Z,4.65
2022-08-03T08:50:08.897Z,5.00
2022-08-03T08:56:57.216Z,4.45
2022-08-03T09:03:43.142Z,4.65
2022-08-03T09:10:31.444Z,4.85
2022-08-03T09:17:17.718Z,5.20
2022-08-03T09:24:10.503Z,3.90
2022-08-03T09:31:11.261Z,4.53
2022-08-03T09:38:14.283Z,5.03
2022-08-03T09:45:00.611Z,4.30
2022-08-03T09:52:32.074Z,4.82
2022-08-03T09:58:54.896Z,4.50
2022-08-03T10:05:44.646Z,4.35
2022-08-03T10:12:33.301Z,4.32
2022-08-03T10:19:19.824Z,4.30
2022-08-03T10:26:07.762Z,4.70
2022-08-03T10:32:59.570Z,4.18
2022-08-03T10:39:56.294Z,4.35
2022-08-03T10:46:45.383Z,4.95
2022-08-03T10:53:54.132Z,3.72
2022-08-03T11:00:53.531Z,4.30
2022-08-03T11:07:39.147Z,5.07
2022-08-03T11:14:27.472Z,4.50
2022-08-03T11:21:13.194Z,4.32
2022-08-03T11:28:30.646Z,4.53
2022-08-03T11:35:20.912Z,3.92
2022-08-03T11:42:48.314Z,3.90
2022-08-03T11:49:34.201Z,3.97
2022-08-03T11:56:22.908Z,4.30
2022-08-03T12:03:11.174Z,3.90
2022-08-03T12:10:11.897Z,4.53
2022-08-03T12:16:59.991Z,4.15
2022-08-03T12:23:46.679Z,4.63
2022-08-03T12:30:32.288Z,3.80
2022-08-03T12:37:23.727Z,4.50
2022-08-03T12:44:11.707Z,4.07
2022-08-03T12:51:12.520Z,4.47
2022-08-03T12:58:00.908Z,4.60
2022-08-03T13:04:47.352Z,4.00
2022-08-03T13:11:57.736Z,4.18
2022-08-03T13:18:41.816Z,3.92
2022-08-03T13:25:27.404Z,3.97
2022-08-03T13:32:14.018Z,3.63
2022-08-03T13:39:02.106Z,4.18
2022-08-03T13:45:53.611Z,4.55
2022-08-03T13:52:42.409Z,4.15
2022-08-03T13:59:31.015Z,4.47
2022-08-03T14:06:16.487Z,4.22
2022-08-03T14:13:02.532Z,4.07
2022-08-03T14:19:53.367Z,3.97
2022-08-03T14:26:39.552Z,4.35
2022-08-03T14:33:26.660Z,4.72
2022-08-03T14:40:15.179Z,4.25
2022-08-03T14:47:01.145Z,4.88
2022-08-03T14:53:46.757Z,4.80
2022-08-03T15:00:34.909Z,4.57
2022-08-03T15:07:20.916Z,4.47
2022-08-03T15:14:09.440Z,4.40
2022-08-03T15:20:57.689Z,4.32
2022-08-03T15:28:03.759Z,4.32
2022-08-03T15:34:51.298Z,4.10
2022-08-03T15:41:39.513Z,3.92
2022-08-03T15:48:26.655Z,4.05
2022-08-03T15:55:15.866Z,4.22
2022-08-03T16:02:05.230Z,4.28
2022-08-03T16:08:51.229Z,3.65
2022-08-03T16:15:38.994Z,4.22
2022-08-03T16:22:27.829Z,3.47
2022-08-03T16:29:23.105Z,3.78
2022-08-03T16:36:10.097Z,4.43
2022-08-03T16:42:58.415Z,4.10
2022-08-03T16:49:55.209Z,3.63
2022-08-03T16:56:41.994Z,3.67
2022-08-03T17:03:42.418Z,3.20
2022-08-03T17:10:36.886Z,3.60
2022-08-03T17:17:37.734Z,3.60
2022-08-03T17:24:42.911Z,3.22
2022-08-03T17:31:32.079Z,3.75
2022-08-03T17:38:32.036Z,3.70
2022-08-03T17:45:24.991Z,5.50
2022-08-03T17:52:38.122Z,5.05
2022-08-03T17:59:50.310Z,3.50
2022-08-03T18:06:56.298Z,4.73
2022-08-03T18:13:57.701Z,7.22
2022-08-03T18:20:45.634Z,4.07
2022-08-03T18:27:42.684Z,3.70
2022-08-03T18:34:34.474Z,3.50
2022-08-03T18:41:33.681Z,3.38
2022-08-03T18:48:30.061Z,3.92
2022-08-03T18:55:32.878Z,3.63
2022-08-03T19:02:31.834Z,3.25
2022-08-03T19:09:29.113Z,3.95
2022-08-03T19:16:24.180Z,3.80
2022-08-03T19:23:11.837Z,3.95
2022-08-03T19:30:14.127Z,4.53
2022-08-03T19:37:08.177Z,4.40
2022-08-03T19:44:04.893Z,4.75
2022-08-03T19:50:56.610Z,4.95
2022-08-03T19:57:49.599Z,5.00
2022-08-03T20:04:35.579Z,5.25
2022-08-03T20:11:28.453Z,5.40
2022-08-03T20:18:16.963Z,4.40
2022-08-03T20:25:06.024Z,5.43
2022-08-03T20:31:54.042Z,4.82
2022-08-03T20:38:47.053Z,5.00
2022-08-03T20:45:59.685Z,5.22
2022-08-03T20:52:49.394Z,4.72
2022-08-03T20:59:50.461Z,4.63
2022-08-03T21:06:41.781Z,5.60
2022-08-03T21:13:45.305Z,4.60
2022-08-03T21:20:35.262Z,5.07
2022-08-03T21:27:21.136Z,5.28
2022-08-03T21:34:09.953Z,5.30
2022-08-03T21:40:56.948Z,5.18
2022-08-03T21:47:45.065Z,4.65
2022-08-03T21:54:43.693Z,5.57
2022-08-03T22:01:35.286Z,5.47
2022-08-03T22:08:21.645Z,4.97
2022-08-03T22:15:13.500Z,4.68
2022-08-03T22:21:59.265Z,5.22
2022-08-03T22:28:45.792Z,4.63
2022-08-03T22:35:44.468Z,5.30
2022-08-03T22:42:35.167Z,5.22
2022-08-03T22:49:21.029Z,5.70
2022-08-03T22:56:10.527Z,5.22
2022-08-03T23:02:58.321Z,5.47
2022-08-03T23:09:47.083Z,5.32
2022-08-03T23:16:40.695Z,5.85
2022-08-03T23:23:26.936Z,5.17
2022-08-03T23:30:15.657Z,5.47
2022-08-03T23:37:09.057Z,4.90
2022-08-03T23:43:55.935Z,5.65
2022-08-03T23:50:48.749Z,5.93
2022-08-03T23:57:49.847Z,5.90
